createdAt,value
2022-12-25T00:02:46.961Z,98798.74
2022-12-25T00:13:14.649Z,98812.63
2022-12-25T00:23:42.448Z,98825.06
2022-12-25T00:34:10.135Z,98839.55
2022-12-25T00:44:37.944Z,98865.52
2022-12-25T00:55:06.654Z,98872.39
2022-12-25T01:05:34.214Z,98887.39
2022-12-25T01:16:06.099Z,98905.22
2022-12-25T01:26:33.793Z,98918.31
2022-12-25T01:37:01.388Z,98916.08
2022-12-25T01:47:29.146Z,98922.84
2022-12-25T01:57:57.316Z,98942.67
2022-12-25T02:08:26.274Z,98949.14
2022-12-25T02:18:59.677Z,98946.19
2022-12-25T02:29:31.830Z,98947.36
2022-12-25T02:40:06.236Z,98951.59
2022-12-25T02:50:51.807Z,98949.34
2022-12-25T03:01:39.356Z,98955.75
2022-12-25T03:12:15.375Z,98955.17
2022-12-25T03:23:03.743Z,98952.34
2022-12-25T03:33:46.681Z,98960.42
2022-12-25T03:44:36.556Z,98972.89
2022-12-25T03:55:27.434Z,98967.14
2022-12-25T04:06:12.102Z,98981.36
2022-12-25T04:16:57.522Z,98998.69
2022-12-25T04:27:43.237Z,99017.90
2022-12-25T04:38:10.936Z,99018.44
2022-12-25T04:48:39.089Z,99020.30
2022-12-25T04:59:06.679Z,99024.48
2022-12-25T05:09:34.291Z,99021.35
2022-12-25T05:20:02.243Z,99036.64
2022-12-25T05:30:29.815Z,99041.86
2022-12-25T05:40:57.376Z,99045.16
2022-12-25T05:51:26.126Z,99062.61
2022-12-25T06:01:54.114Z,99074.65
2022-12-25T06:12:21.770Z,99078.09
2022-12-25T06:22:49.376Z,99091.95
2022-12-25T06:33:17.160Z,99100.14
2022-12-25T06:43:45.208Z,99124.16
2022-12-25T06:54:12.773Z,99128.14
2022-12-25T07:04:43.072Z,99153.40
2022-12-25T07:15:12.357Z,99176.86
2022-12-25T07:25:39.969Z,99198.33
2022-12-25T07:36:12.516Z,99212.38
2022-12-25T07:46:40.691Z,99210.25
2022-12-25T07:57:09.014Z,99208.09
2022-12-25T08:07:36.978Z,99209.70
2022-12-25T08:18:04.619Z,99221.24
2022-12-25T08:28:33.561Z,99218.98
2022-12-25T08:39:03.395Z,99207.17
2022-12-25T08:49:31.174Z,99210.12
2022-12-25T08:59:59.103Z,99238.52
2022-12-25T09:10:26.694Z,99241.93
2022-12-25T09:21:01.823Z,99237.34
2022-12-25T09:31:29.505Z,99243.63
2022-12-25T09:42:01.094Z,99243.88
2022-12-25T09:52:38.819Z,99251.62
2022-12-25T10:03:20.384Z,99250.52
2022-12-25T10:14:01.920Z,99247.96
2022-12-25T10:24:37.965Z,99242.32
2022-12-25T10:35:05.871Z,99229.58
2022-12-25T10:45:43.276Z,99227.71
2022-12-25T10:56:19.536Z,99220.69
2022-12-25T11:06:56.783Z,99206.90
2022-12-25T11:17:26.742Z,99204.06
2022-12-25T11:28:02.311Z,99197.95
2022-12-25T11:38:30.167Z,99185.08
2022-12-25T11:49:01.924Z,99171.14
2022-12-25T11:59:36.172Z,99164.42
2022-12-25T12:10:15.116Z,99160.83
2022-12-25T12:20:43.032Z,99144.44
2022-12-25T12:31:11.208Z,99149.66
2022-12-25T12:41:49.669Z,99146.04
2022-12-25T12:52:27.431Z,99127.67
2022-12-25T13:03:19.164Z,99137.03
2022-12-25T13:13:48.555Z,99147.25
2022-12-25T13:24:24.207Z,99152.27
2022-12-25T13:34:53.303Z,99162.77
2022-12-25T13:45:26.755Z,99157.35
2022-12-25T13:55:57.560Z,99158.40
2022-12-25T14:06:29.233Z,99145.52
2022-12-25T14:17:00.387Z,99147.06
2022-12-25T14:27:30.517Z,99143.90
2022-12-25T14:38:01.132Z,99119.89
2022-12-25T14:48:30.437Z,99104.82
2022-12-25T14:59:00.262Z,99113.88
2022-12-25T15:09:30.171Z,99139.19
2022-12-25T15:20:02.290Z,99160.56
2022-12-25T15:30:30.548Z,99139.75
2022-12-25T15:40:58.117Z,99103.80
2022-12-25T15:51:26.112Z,99087.60
2022-12-25T16:01:56.324Z,99064.36
2022-12-25T16:12:24.106Z,99087.55
2022-12-25T16:22:51.830Z,99082.28
2022-12-25T16:33:19.418Z,99089.84
2022-12-25T16:43:47.257Z,99096.09
2022-12-25T16:54:15.259Z,99081.15
2022-12-25T17:04:42.863Z,99077.24
2022-12-25T17:15:12.567Z,99059.85
2022-12-25T17:25:41.140Z,99025.55
2022-12-25T17:36:12.282Z,99025.77
2022-12-25T17:46:40.219Z,99016.91
2022-12-25T17:57:07.963Z,99032.73
2022-12-25T18:07:35.582Z,99043.48
2022-12-25T18:18:03.215Z,99013.75
2022-12-25T18:28:30.869Z,99014.41
2022-12-25T18:38:59.215Z,99002.64
2022-12-25T18:49:26.918Z,99005.71
2022-12-25T18:59:54.809Z,98994.67
2022-12-25T19:10:22.420Z,98984.13
2022-12-25T19:20:49.916Z,98988.60
2022-12-25T19:31:17.768Z,98978.70
2022-12-25T19:41:45.548Z,98966.88
2022-12-25T19:52:13.924Z,98950.88
2022-12-25T20:02:41.492Z,98947.14
2022-12-25T20:13:09.987Z,98937.92
2022-12-25T20:23:37.587Z,98913.67
2022-12-25T20:34:09.017Z,98893.67
2022-12-25T20:44:36.688Z,98900.41
2022-12-25T20:55:04.702Z,98886.02
2022-12-25T21:05:32.689Z,98857.02
2022-12-25T21:16:01.188Z,98856.98
2022-12-25T21:26:28.155Z,98839.61
2022-12-25T21:36:55.768Z,98834.35
2022-12-25T21:47:23.408Z,98839.49
2022-12-25T21:57:50.824Z,98826.95
2022-12-25T22:08:18.675Z,98821.75
2022-12-25T22:19:03.729Z,98814.27
2022-12-25T22:29:31.503Z,98822.28
2022-12-25T22:40:01.328Z,98801.42
2022-12-25T22:50:29.227Z,98785.94
2022-12-25T23:00:56.843Z,98778.50
2022-12-25T23:11:24.603Z,98779.72
2022-12-25T23:22:24.507Z,98785.27
2022-12-25T23:32:52.161Z,98782.73
2022-12-25T23:43:19.725Z,98774.98
2022-12-25T23:53:47.926Z,98758.91
